Time;durP1;ratioP1;P1;durP2;ratioP2;P2;SDS_P1;SDS_P2;PMS_P1;PMS_P2;Temp;Humidity;BMP_temperature;BMP_pressure;BME280_temperature;BME280_humidity;BME280_pressure;Samples;Min_cycle;Max_cycle;Signal;HPM_P1;HPM_P2
2023/05/18 00:01:11;;;;;;;17.97;12.77;;;;;;;-144.30;100.00;85879.53;5052621;28;20196;-54
2023/05/18 00:03:38;;;;;;;13.33;11.80;;;;;;;-144.30;100.00;85865.63;5052672;28;20193;-54
2023/05/18 00:06:06;;;;;;;14.53;13.03;;;;;;;-144.30;100.00;85905.38;5052806;28;20205;-54
2023/05/18 00:08:34;;;;;;;17.57;12.67;;;;;;;-144.30;100.00;85909.34;5052831;28;20259;-54
2023/05/18 00:11:01;;;;;;;23.23;13.27;;;;;;;-144.30;100.00;85937.19;5052371;28;20220;-55
2023/05/18 00:13:29;;;;;;;14.53;12.83;;;;;;;-144.30;100.00;85861.63;5052382;28;20205;-54
2023/05/18 00:15:56;;;;;;;17.07;12.43;;;;;;;-144.30;100.00;85893.44;5052536;28;20189;-51
2023/05/18 00:18:25;;;;;;;19.30;12.77;;;;;;;-144.30;100.00;85923.28;5052731;28;20196;-53
2023/05/18 00:20:57;;;;;;;16.90;14.43;;;;;;;-144.30;100.00;85885.50;5052497;28;20696;-53
2023/05/18 00:23:25;;;;;;;14.97;12.73;;;;;;;-144.30;100.00;85893.44;5052293;28;20731;-54
2023/05/18 00:25:53;;;;;;;14.53;12.33;;;;;;;-144.30;100.00;85901.41;5052048;28;20246;-55
2023/05/18 00:28:20;;;;;;;13.97;12.47;;;;;;;-144.30;100.00;85730.41;5052218;28;20208;-54
2023/05/18 00:30:47;;;;;;;14.07;11.47;;;;;;;-144.30;100.00;85845.75;5052103;28;20246;-54
2023/05/18 00:33:14;;;;;;;12.97;11.13;;;;;;;-144.30;100.00;85895.44;5051553;28;20201;-52
2023/05/18 00:35:41;;;;;;;16.37;12.30;;;;;;;-144.30;100.00;85905.38;5051605;28;20254;-52
2023/05/18 00:38:08;;;;;;;14.70;12.47;;;;;;;-144.30;100.00;85883.50;5052249;28;20196;-52
2023/05/18 00:40:35;;;;;;;15.97;13.10;;;;;;;-144.30;100.00;85839.78;5052133;28;20278;-54
2023/05/18 00:43:03;;;;;;;16.57;12.33;;;;;;;-144.30;100.00;85911.34;5051948;28;20208;-52
2023/05/18 00:45:30;;;;;;;16.97;12.20;;;;;;;-144.30;100.00;85917.31;5051893;28;20211;-52
2023/05/18 00:47:57;;;;;;;16.17;12.93;;;;;;;-144.30;100.00;85895.44;5051895;28;20199;-54
2023/05/18 00:50:24;;;;;;;17.53;13.63;;;;;;;-144.30;100.00;85758.25;5051992;28;20271;-53
2023/05/18 00:52:51;;;;;;;17.20;13.43;;;;;;;-144.30;100.00;85905.38;5051753;28;20212;-53
2023/05/18 00:55:18;;;;;;;15.23;12.77;;;;;;;-144.30;100.00;85917.31;5051740;28;20738;-54
2023/05/18 00:57:47;;;;;;;15.87;13.00;;;;;;;-144.30;100.00;85921.28;5051589;28;20232;-53
2023/05/18 01:00:16;;;;;;;18.10;13.70;;;;;;;-144.30;100.00;85915.31;5051574;28;20460;-54
2023/05/18 01:02:44;;;;;;;19.63;13.80;;;;;;;-144.30;100.00;85901.41;5051629;28;20204;-52
2023/05/18 01:05:12;;;;;;;20.03;14.20;;;;;;;-144.30;100.00;85943.16;5051635;28;20196;-52
2023/05/18 01:07:41;;;;;;;18.30;15.43;;;;;;;-144.30;100.00;85965.03;5051533;28;20207;-51
2023/05/18 01:10:10;;;;;;;25.13;15.77;;;;;;;-144.30;100.00;85897.44;5051816;28;20790;-52
2023/05/18 01:12:43;;;;;;;20.07;15.87;;;;;;;-144.30;100.00;85917.31;5051671;28;20574;-52
2023/05/18 01:15:16;;;;;;;29.53;18.03;;;;;;;-144.30;100.00;85939.19;5051534;28;20279;-52
2023/05/18 01:17:59;;;;;;;36.63;19.43;;;;;;;-144.30;100.00;85955.09;5051404;28;20196;-52
2023/05/18 01:20:36;;;;;;;33.03;19.40;;;;;;;-144.30;100.00;85972.97;5050973;28;20232;-51
2023/05/18 01:23:29;;;;;;;33.03;20.10;;;;;;;-144.30;100.00;85992.88;5051310;28;20204;-52
2023/05/18 01:26:23;;;;;;;50.93;24.27;;;;;;;-144.30;100.00;86056.50;5051063;28;20192;-52
2023/05/18 01:28:51;;;;;;;46.57;26.10;;;;;;;-144.30;100.00;86030.66;5051387;28;20653;-54
2023/05/18 01:31:19;;;;;;;47.30;24.07;;;;;;;-144.30;100.00;85953.09;5051013;28;20220;-54
2023/05/18 01:33:46;;;;;;;48.93;25.67;;;;;;;-144.30;100.00;86028.66;5050971;28;20211;-53
2023/05/18 01:36:13;;;;;;;47.93;25.33;;;;;;;-144.30;100.00;85980.94;5051007;28;20287;-54
2023/05/18 01:38:41;;;;;;;51.97;25.00;;;;;;;-144.30;100.00;86000.81;5051058;28;20218;-55
2023/05/18 01:41:13;;;;;;;54.17;25.20;;;;;;;-144.30;100.00;85972.97;5050620;28;20193;-54
2023/05/18 01:43:47;;;;;;;44.77;25.53;;;;;;;-144.30;100.00;85994.84;5050861;28;20200;-54
2023/05/18 01:46:21;;;;;;;44.07;24.73;;;;;;;-144.30;100.00;85978.94;5050374;28;20258;-53
2023/05/18 01:48:54;;;;;;;44.10;23.70;;;;;;;-144.30;100.00;85971.00;5050751;28;20579;-55
2023/05/18 01:51:22;;;;;;;37.43;21.20;;;;;;;-144.30;100.00;85967.03;5050288;28;20216;-52
2023/05/18 01:53:55;;;;;;;29.73;18.13;;;;;;;-144.30;100.00;85994.84;5050452;28;20203;-52
2023/05/18 01:56:22;;;;;;;28.00;17.60;;;;;;;-144.30;100.00;85961.06;5050546;28;20197;-54
2023/05/18 01:58:51;;;;;;;30.73;18.73;;;;;;;-144.30;100.00;85937.19;5050378;28;20404;-54
2023/05/18 02:01:21;;;;;;;36.50;18.77;;;;;;;-144.30;100.00;85988.88;5050457;28;20679;-53
2023/05/18 02:03:48;;;;;;;33.60;18.07;;;;;;;-144.30;100.00;85953.09;5050312;28;20330;-54
2023/05/18 02:06:15;;;;;;;37.67;18.17;;;;;;;-144.30;100.00;85969.00;5050564;28;20197;-54
2023/05/18 02:08:42;;;;;;;37.00;19.60;;;;;;;-144.30;100.00;85976.97;5050509;28;20197;-54
2023/05/18 02:11:09;;;;;;;39.17;19.53;;;;;;;-144.30;100.00;85957.06;5050218;28;20227;-54
2023/05/18 02:13:36;;;;;;;40.93;19.87;;;;;;;-144.30;100.00;85976.97;5050461;28;20720;-52
2023/05/18 02:16:05;;;;;;;37.43;19.90;;;;;;;-144.30;100.00;85976.97;5050213;28;20206;-54
2023/05/18 02:18:35;;;;;;;43.97;21.47;;;;;;;-144.30;100.00;85990.88;5049947;28;20220;-55
2023/05/18 02:21:02;;;;;;;43.27;21.13;;;;;;;-144.30;100.00;85941.16;5050164;28;20188;-55
2023/05/18 02:23:30;;;;;;;41.20;21.43;;;;;;;-144.30;100.00;85976.97;5050104;28;20236;-54
2023/05/18 02:25:57;;;;;;;45.67;22.97;;;;;;;-144.30;100.00;85955.09;5050003;28;20250;-53
2023/05/18 02:28:24;;;;;;;43.33;21.70;;;;;;;-144.30;100.00;85963.03;5050463;28;20274;-55
2023/05/18 02:30:51;;;;;;;38.20;21.23;;;;;;;-144.30;100.00;85935.22;5050134;28;20314;-55
2023/05/18 02:33:24;;;;;;;41.83;22.30;;;;;;;-144.30;100.00;85953.09;5050082;28;20196;-52
2023/05/18 02:35:53;;;;;;;42.80;22.47;;;;;;;-144.30;100.00;85931.22;5050131;28;20696;-55
2023/05/18 02:38:20;;;;;;;43.33;22.00;;;;;;;-144.30;100.00;85921.28;5049853;28;20200;-51
2023/05/18 02:40:48;;;;;;;41.33;20.87;;;;;;;-144.30;100.00;85953.09;5050082;28;20631;-53
2023/05/18 02:43:15;;;;;;;42.03;22.67;;;;;;;-144.30;100.00;85925.25;5050521;28;20212;-54
2023/05/18 02:45:42;;;;;;;47.37;22.27;;;;;;;-144.30;100.00;85953.09;5049804;28;20250;-55
2023/05/18 02:48:08;;;;;;;47.37;22.67;;;;;;;-144.30;100.00;85905.38;5050205;28;20234;-54
2023/05/18 02:50:37;;;;;;;46.30;22.67;;;;;;;-144.30;100.00;85935.22;5050122;28;20224;-55
2023/05/18 02:53:04;;;;;;;47.50;23.60;;;;;;;-144.30;100.00;85947.13;5050243;28;20287;-55
2023/05/18 02:55:30;;;;;;;45.63;22.30;;;;;;;-144.30;100.00;85935.22;5050352;28;20194;-55
2023/05/18 02:57:58;;;;;;;42.60;22.00;;;;;;;-144.30;100.00;85935.22;5051748;28;20228;-55
2023/05/18 03:00:25;;;;;;;48.40;22.90;;;;;;;-144.30;100.00;85965.03;5054046;28;20258;-52
2023/05/18 03:02:56;;;;;;;51.03;23.27;;;;;;;-144.30;100.00;85949.13;5054055;28;20222;-52
2023/05/18 03:05:23;;;;;;;45.43;22.83;;;;;;;-144.30;100.00;85969.00;5054179;28;20669;-55
2023/05/18 03:07:53;;;;;;;49.73;23.50;;;;;;;-144.30;100.00;85907.38;5053244;28;20196;-54
2023/05/18 03:10:20;;;;;;;47.83;23.77;;;;;;;-144.30;100.00;85927.25;5053632;28;20220;-52
2023/05/18 03:12:47;;;;;;;53.80;24.23;;;;;;;-144.30;100.00;85927.25;5053860;28;20584;-53
2023/05/18 03:15:15;;;;;;;47.90;24.60;;;;;;;-144.30;100.00;85937.19;5053671;28;20285;-53
2023/05/18 03:17:42;;;;;;;47.87;24.70;;;;;;;-144.30;100.00;85953.09;5053633;28;20628;-52
2023/05/18 03:20:10;;;;;;;51.50;25.60;;;;;;;-144.30;100.00;85957.06;5053860;28;20208;-53
2023/05/18 03:22:37;;;;;;;46.43;23.93;;;;;;;-144.30;100.00;85957.06;5053520;28;20193;-52
2023/05/18 03:25:07;;;;;;;51.13;24.37;;;;;;;-144.30;100.00;85980.94;5053443;28;20207;-53
2023/05/18 03:27:36;;;;;;;53.73;24.07;;;;;;;-144.30;100.00;85980.94;5053472;28;20201;-52
2023/05/18 03:30:04;;;;;;;42.23;23.60;;;;;;;-144.30;100.00;85972.97;5053453;28;20656;-53
2023/05/18 03:32:32;;;;;;;57.70;23.17;;;;;;;-144.30;100.00;85957.06;5048580;28;20201;-52
2023/05/18 03:34:59;;;;;;;44.90;23.40;;;;;;;-144.30;100.00;85980.94;5051073;28;20228;-52
2023/05/18 03:37:27;;;;;;;40.50;22.47;;;;;;;-144.30;100.00;85939.19;5049310;28;20250;-53
2023/05/18 03:39:55;;;;;;;44.07;23.57;;;;;;;-144.30;100.00;85996.84;5050945;28;20197;-53
2023/05/18 03:42:24;;;;;;;45.03;22.47;;;;;;;-144.30;100.00;85967.03;5049968;28;20193;-52
2023/05/18 03:44:51;;;;;;;40.23;23.07;;;;;;;-144.30;100.00;85945.16;5049377;28;20197;-53
2023/05/18 03:47:18;;;;;;;43.27;23.27;;;;;;;-144.30;100.00;85917.31;5051534;28;20191;-53
2023/05/18 03:49:45;;;;;;;34.43;21.93;;;;;;;-144.30;100.00;85967.03;5052303;28;20791;-53
2023/05/18 03:52:14;;;;;;;36.63;21.67;;;;;;;-144.30;100.00;85953.09;5052253;28;20209;-51
2023/05/18 03:54:41;;;;;;;36.33;21.10;;;;;;;-144.30;100.00;85951.13;5052379;28;20254;-53
2023/05/18 03:57:08;;;;;;;36.17;21.03;;;;;;;-144.30;100.00;85961.06;5051357;28;20578;-53
2023/05/18 03:59:36;;;;;;;37.80;21.57;;;;;;;-144.30;100.00;85947.13;5051322;28;20200;-52
2023/05/18 04:02:03;;;;;;;37.87;20.80;;;;;;;-144.30;100.00;85969.00;5052175;28;20247;-51
2023/05/18 04:04:30;;;;;;;33.90;20.80;;;;;;;-144.30;100.00;85945.16;5052616;28;20196;-51
2023/05/18 04:07:00;;;;;;;36.00;21.20;;;;;;;-144.30;100.00;85953.09;5052557;28;20287;-52
2023/05/18 04:09:28;;;;;;;39.30;22.60;;;;;;;-144.30;100.00;85990.88;5051864;28;20207;-55
2023/05/18 04:11:55;;;;;;;40.83;22.27;;;;;;;-144.30;100.00;85939.19;5050385;28;20223;-54
2023/05/18 04:14:23;;;;;;;41.83;23.83;;;;;;;-144.30;100.00;85957.06;5051258;28;20207;-54
2023/05/18 04:16:51;;;;;;;45.37;24.37;;;;;;;-144.30;100.00;85965.03;5051568;28;20197;-53
2023/05/18 04:19:20;;;;;;;41.77;22.50;;;;;;;-144.30;100.00;85857.66;5051207;28;20692;-52
2023/05/18 04:21:47;;;;;;;40.07;22.00;;;;;;;-144.30;100.00;85921.28;5050584;28;20517;-51
2023/05/18 04:24:15;;;;;;;37.87;22.60;;;;;;;-144.30;100.00;85857.66;5051056;28;20279;-52
2023/05/18 04:26:42;;;;;;;46.33;23.13;;;;;;;-144.30;100.00;85895.44;5050748;28;20204;-52
2023/05/18 04:29:09;;;;;;;38.73;22.13;;;;;;;-144.30;100.00;85917.31;5051677;28;20222;-52
2023/05/18 04:31:36;;;;;;;39.90;22.73;;;;;;;-144.30;100.00;85897.44;5051430;28;20597;-52
2023/05/18 04:34:05;;;;;;;40.00;23.13;;;;;;;-144.30;100.00;85895.44;5051184;28;20287;-51
2023/05/18 04:36:33;;;;;;;39.67;20.60;;;;;;;-144.30;100.00;85889.47;5051180;28;20201;-51
2023/05/18 04:39:02;;;;;;;34.93;21.03;;;;;;;-144.30;100.00;85879.53;5048530;28;20220;-53
2023/05/18 04:41:29;;;;;;;31.43;19.67;;;;;;;-144.30;100.00;85865.63;5050697;28;20220;-53
2023/05/18 04:43:56;;;;;;;32.93;19.27;;;;;;;-144.30;100.00;85909.34;5050574;28;20228;-55
2023/05/18 04:46:23;;;;;;;25.87;16.77;;;;;;;-144.30;100.00;85871.59;5050718;28;20224;-55
2023/05/18 04:48:50;;;;;;;24.87;17.53;;;;;;;-144.30;100.00;85891.47;5050575;28;20224;-54
2023/05/18 04:51:20;;;;;;;27.97;17.90;;;;;;;-144.30;100.00;85901.41;5050486;28;20239;-54
2023/05/18 04:53:48;;;;;;;25.93;17.20;;;;;;;-144.30;100.00;85863.63;5049945;28;20229;-54
2023/05/18 04:56:16;;;;;;;26.07;17.03;;;;;;;-144.30;100.00;85861.63;5048430;28;20255;-52
2023/05/18 04:58:46;;;;;;;27.03;18.23;;;;;;;-144.30;100.00;85855.69;5051645;28;20233;-52
2023/05/18 05:01:14;;;;;;;25.37;17.93;;;;;;;-144.30;100.00;85869.59;5051573;28;20203;-52
2023/05/18 05:03:41;;;;;;;22.60;17.10;;;;;;;-144.30;100.00;85837.78;5051423;28;20207;-52
2023/05/18 05:06:08;;;;;;;28.37;18.00;;;;;;;-144.30;100.00;85813.94;5051300;28;20208;-52
2023/05/18 05:08:37;;;;;;;23.53;16.93;;;;;;;-144.30;100.00;85857.66;5051675;28;20744;-52
2023/05/18 05:11:04;;;;;;;24.73;16.80;;;;;;;-144.30;100.00;85875.56;5051330;28;20307;-51
2023/05/18 05:13:31;;;;;;;22.43;16.03;;;;;;;-144.30;100.00;85857.66;5051395;28;20699;-51
2023/05/18 05:15:58;;;;;;;23.00;17.53;;;;;;;-144.30;100.00;85851.69;5051272;28;20212;-52
2023/05/18 05:18:25;;;;;;;22.30;17.40;;;;;;;-144.30;100.00;85821.88;5051407;28;20196;-53
2023/05/18 05:20:55;;;;;;;26.37;18.23;;;;;;;-144.30;100.00;85823.88;5050881;28;20197;-52
2023/05/18 05:23:21;;;;;;;29.77;19.07;;;;;;;-144.30;100.00;85798.03;5051442;28;20599;-52
2023/05/18 05:25:50;;;;;;;21.10;16.57;;;;;;;-144.30;100.00;85829.84;5051084;28;20287;-51
2023/05/18 05:28:17;;;;;;;23.90;17.70;;;;;;;-144.30;100.00;85833.81;5050882;28;20226;-52
2023/05/18 05:30:44;;;;;;;24.37;17.40;;;;;;;-144.30;100.00;85837.78;5051186;28;20569;-51
2023/05/18 05:33:10;;;;;;;27.40;16.83;;;;;;;-144.30;100.00;85805.97;5051168;28;20283;-56
2023/05/18 05:35:37;;;;;;;23.77;17.80;;;;;;;-144.30;100.00;85817.91;5050990;28;20200;-55
2023/05/18 05:38:05;;;;;;;23.63;16.30;;;;;;;-144.30;100.00;85807.97;5051037;28;20236;-52
2023/05/18 05:40:32;;;;;;;26.67;17.00;;;;;;;-144.30;100.00;85794.03;5050836;28;20204;-52
2023/05/18 05:43:00;;;;;;;21.37;16.87;;;;;;;-144.30;100.00;85794.03;5052376;28;20203;-50
2023/05/18 05:45:27;;;;;;;23.07;17.53;;;;;;;-144.30;100.00;85790.06;5051472;28;20292;-51
2023/05/18 05:47:54;;;;;;;28.40;19.10;;;;;;;-144.30;100.00;85821.88;5049636;28;20200;-52
2023/05/18 05:50:21;;;;;;;19.83;15.27;;;;;;;-144.30;100.00;85805.97;5046812;28;20224;-53
2023/05/18 05:52:48;;;;;;;23.00;16.27;;;;;;;-144.30;100.00;85831.81;5049105;28;20220;-55
2023/05/18 05:55:15;;;;;;;24.70;18.53;;;;;;;-144.30;100.00;85766.22;5049169;28;20811;-52
2023/05/18 05:57:42;;;;;;;20.83;17.33;;;;;;;-144.30;100.00;85778.13;5046681;28;20324;-55
2023/05/18 06:00:12;;;;;;;26.57;19.20;;;;;;;-144.30;100.00;85654.88;5049249;28;20197;-54
2023/05/18 06:02:39;;;;;;;22.47;17.80;;;;;;;-144.30;100.00;85805.97;5048908;28;20193;-52
2023/05/18 06:05:07;;;;;;;23.67;18.80;;;;;;;-144.30;100.00;85794.03;5049042;28;20223;-52
2023/05/18 06:07:34;;;;;;;22.37;17.87;;;;;;;-144.30;100.00;85782.13;5049524;28;20570;-52
2023/05/18 06:10:01;;;;;;;22.93;17.97;;;;;;;-144.30;100.00;85794.03;5046151;28;20205;-53
2023/05/18 06:12:28;;;;;;;22.07;16.23;;;;;;;-144.30;100.00;85786.09;5049069;28;20213;-51
2023/05/18 06:14:56;;;;;;;25.57;18.20;;;;;;;-144.30;100.00;85766.22;5049058;28;20192;-52
2023/05/18 06:17:25;;;;;;;22.60;15.83;;;;;;;-144.30;100.00;85768.19;5046820;28;20702;-52
2023/05/18 06:19:52;;;;;;;17.33;14.93;;;;;;;-144.30;100.00;85764.22;5048838;28;20193;-55
2023/05/18 06:22:19;;;;;;;18.07;13.33;;;;;;;-144.30;100.00;85782.13;5049091;28;20195;-52
2023/05/18 06:24:46;;;;;;;21.17;13.67;;;;;;;-144.30;100.00;85798.03;5048788;28;20193;-52
2023/05/18 06:27:13;;;;;;;13.00;11.20;;;;;;;-144.30;100.00;85774.16;5048878;28;20202;-52
2023/05/18 06:29:40;;;;;;;18.60;12.47;;;;;;;-144.30;100.00;85724.47;5048790;28;20196;-55
2023/05/18 06:32:08;;;;;;;11.47;10.33;;;;;;;-144.30;100.00;85750.31;5047815;28;20220;-54
2023/05/18 06:34:36;;;;;;;13.07;11.17;;;;;;;-144.30;100.00;85742.34;5048895;28;20279;-53
2023/05/18 06:37:03;;;;;;;16.43;12.30;;;;;;;-144.30;100.00;85758.25;5046167;28;20258;-52
2023/05/18 06:39:30;;;;;;;14.37;12.43;;;;;;;-144.30;100.00;85734.41;5048621;28;20197;-52
2023/05/18 06:41:57;;;;;;;14.80;12.93;;;;;;;-144.30;100.00;85609.16;5048649;28;20188;-54
2023/05/18 06:44:24;;;;;;;17.17;14.43;;;;;;;-144.30;100.00;85710.53;5048793;28;20291;-55
2023/05/18 06:46:51;;;;;;;21.40;18.67;;;;;;;-144.30;100.00;85720.47;5048447;28;20224;-54
2023/05/18 06:49:18;;;;;;;20.97;17.23;;;;;;;-144.30;100.00;85706.56;5048496;28;20715;-54
2023/05/18 06:51:46;;;;;;;24.30;17.87;;;;;;;-144.30;100.00;85714.53;5047535;28;20230;-53
2023/05/18 06:54:13;;;;;;;24.40;18.23;;;;;;;-144.30;100.00;85726.44;5048911;28;20225;-51
2023/05/18 06:56:40;;;;;;;27.60;20.23;;;;;;;-144.30;100.00;85712.53;5048796;28;20211;-50
2023/05/18 06:59:07;;;;;;;32.67;20.10;;;;;;;-144.30;100.00;85726.44;5048704;28;20232;-52
2023/05/18 07:01:34;;;;;;;32.73;21.53;;;;;;;-144.30;100.00;85714.53;5049342;28;20199;-51
2023/05/18 07:04:01;;;;;;;33.10;21.07;;;;;;;-144.30;100.00;85690.66;5048714;28;20228;-52
2023/05/18 07:06:28;;;;;;;29.17;20.73;;;;;;;-144.30;100.00;85740.38;5047737;28;20224;-56
2023/05/18 07:08:57;;;;;;;38.90;24.57;;;;;;;-144.30;100.00;85750.31;5049306;28;20599;-52
2023/05/18 07:11:24;;;;;;;34.07;23.93;;;;;;;-144.30;100.00;85746.31;5048824;28;20205;-51
2023/05/18 07:13:50;;;;;;;34.07;23.23;;;;;;;-144.30;100.00;85754.28;5048796;28;20200;-54
2023/05/18 07:16:17;;;;;;;38.17;23.60;;;;;;;-144.30;100.00;85803.97;5048688;28;20205;-54
2023/05/18 07:18:44;;;;;;;36.57;24.43;;;;;;;-144.30;100.00;85774.16;5048488;28;20201;-54
2023/05/18 07:21:12;;;;;;;28.53;20.00;;;;;;;-144.30;100.00;85758.25;5048729;28;20246;-53
2023/05/18 07:23:38;;;;;;;21.60;17.00;;;;;;;-144.30;100.00;85778.13;5048768;28;20197;-54
2023/05/18 07:26:09;;;;;;;21.07;15.33;;;;;;;-144.30;100.00;85786.09;5047198;28;20725;-52
2023/05/18 07:28:36;;;;;;;19.87;14.37;;;;;;;-144.30;100.00;85762.22;5049604;28;20715;-51
2023/05/18 07:31:04;;;;;;;17.27;13.03;;;;;;;-144.30;100.00;85752.28;5049209;28;20219;-51
2023/05/18 07:33:30;;;;;;;14.73;11.40;;;;;;;-144.30;100.00;85754.28;5049353;28;20767;-52
2023/05/18 07:35:57;;;;;;;16.33;12.07;;;;;;;-144.30;100.00;85698.63;5049415;28;20293;-51
2023/05/18 07:38:25;;;;;;;12.87;11.20;;;;;;;-144.30;100.00;85714.53;5050274;28;20584;-51
2023/05/18 07:40:52;;;;;;;13.60;10.67;;;;;;;-144.30;100.00;85714.53;5049916;28;20192;-55
2023/05/18 07:43:20;;;;;;;13.17;9.77;;;;;;;-144.30;100.00;85716.50;5050980;28;20475;-51
2023/05/18 07:45:47;;;;;;;10.57;9.57;;;;;;;-144.30;100.00;85694.63;5053539;28;20210;-55
2023/05/18 07:48:14;;;;;;;10.00;9.10;;;;;;;-144.30;100.00;85702.59;5052902;28;20243;-55
2023/05/18 07:50:41;;;;;;;14.23;10.23;;;;;;;-144.30;100.00;85658.84;5053115;28;20584;-55
2023/05/18 07:53:08;;;;;;;14.90;10.13;;;;;;;-144.30;100.00;85638.97;5052647;28;20270;-52
2023/05/18 07:55:35;;;;;;;11.47;10.20;;;;;;;-144.30;100.00;85658.84;5052927;28;20584;-53
2023/05/18 07:58:02;;;;;;;14.27;10.55;;;;;;;-144.30;100.00;85650.91;5052433;28;20705;-54
2023/05/18 08:00:31;;;;;;;15.27;11.17;;;;;;;-144.30;100.00;85666.81;5052791;28;20292;-54
2023/05/18 08:02:59;;;;;;;16.42;11.00;;;;;;;-144.30;100.00;85571.38;5052656;28;20193;-51
2023/05/18 08:05:26;;;;;;;14.45;10.85;;;;;;;-144.30;100.00;85573.38;5052877;28;20254;-52
2023/05/18 08:07:53;;;;;;;14.13;10.23;;;;;;;-144.30;100.00;85619.09;5052441;28;20207;-55
2023/05/18 08:10:20;;;;;;;13.60;10.50;;;;;;;-144.30;100.00;85595.22;5052455;28;20201;-52
2023/05/18 08:12:47;;;;;;;16.65;10.95;;;;;;;-144.30;98.49;85607.16;5052225;28;20227;-52
2023/05/18 08:15:14;;;;;;;12.45;9.35;;;;;;;-144.30;97.87;85603.19;5052378;28;20200;-54
2023/05/18 08:17:42;;;;;;;11.50;9.60;;;;;;;-144.30;97.05;85841.75;5052323;28;20207;-54
2023/05/18 08:20:10;;;;;;;12.57;9.82;;;;;;;-144.30;96.39;85583.31;5052340;28;20288;-51
2023/05/18 08:22:37;;;;;;;10.25;9.07;;;;;;;-144.30;95.67;85559.44;5052317;28;20409;-57
2023/05/18 08:25:05;;;;;;;15.82;9.15;;;;;;;-144.30;92.30;85577.34;5052291;28;20585;-52
2023/05/18 08:27:32;;;;;;;13.00;9.17;;;;;;;-144.30;92.50;85607.16;5052074;28;20196;-53
2023/05/18 08:29:59;;;;;;;17.25;10.43;;;;;;;-144.30;93.30;85581.31;5052417;28;20699;-50
2023/05/18 08:32:26;;;;;;;18.17;11.30;;;;;;;-144.30;93.20;85531.63;5052149;28;20224;-54
2023/05/18 08:34:54;;;;;;;14.73;9.25;;;;;;;-144.30;92.74;85553.47;5051995;28;20205;-54
2023/05/18 08:37:27;;;;;;;15.00;10.55;;;;;;;-144.30;93.15;85507.75;5052054;28;20201;-55
2023/05/18 08:39:54;;;;;;;17.50;10.60;;;;;;;-144.30;93.04;85585.28;5051917;28;20716;-52
2023/05/18 08:42:23;;;;;;;12.13;9.30;;;;;;;-144.30;90.39;85609.16;5052085;28;20199;-51
2023/05/18 08:44:58;;;;;;;13.73;9.40;;;;;;;-144.30;90.36;85565.41;5052101;28;20207;-52
2023/05/18 08:47:26;;;;;;;13.30;9.23;;;;;;;-144.30;89.99;85543.53;5051916;28;20196;-55
2023/05/18 08:49:56;;;;;;;14.55;8.98;;;;;;;-144.30;90.22;85555.47;5051908;28;20207;-54
2023/05/18 08:52:26;;;;;;;10.32;8.15;;;;;;;-144.30;88.24;85525.66;5051633;28;20227;-54
2023/05/18 08:54:54;;;;;;;11.10;8.80;;;;;;;-144.30;87.70;85543.53;5050948;28;20204;-55
2023/05/18 08:57:23;;;;;;;9.75;8.75;;;;;;;-144.30;87.93;85470.00;5051522;28;20230;-55
2023/05/18 08:59:53;;;;;;;13.43;9.35;;;;;;;-144.30;86.52;85444.16;5051710;28;20193;-54
2023/05/18 09:02:20;;;;;;;10.02;8.52;;;;;;;-144.30;85.93;85499.81;5051778;28;20203;-54
2023/05/18 09:04:48;;;;;;;14.88;9.27;;;;;;;-144.30;84.38;85507.75;5051537;28;20208;-54
2023/05/18 09:07:18;;;;;;;9.20;8.30;;;;;;;-144.30;85.12;85483.91;5051468;28;20207;-54
2023/05/18 09:09:46;;;;;;;15.80;8.13;;;;;;;-144.30;83.33;85475.94;5051265;28;20211;-54
2023/05/18 09:12:14;;;;;;;8.13;6.28;;;;;;;-144.30;82.39;85493.84;5051642;28;20707;-54
2023/05/18 09:14:43;;;;;;;6.32;5.55;;;;;;;-144.30;79.83;85458.06;5051615;28;20584;-55
2023/05/18 09:17:10;;;;;;;5.75;5.28;;;;;;;-144.30;79.59;85322.88;5051558;28;20624;-51
2023/05/18 09:19:37;;;;;;;8.10;5.80;;;;;;;-144.30;80.12;85400.41;5043035;28;20732;-51
2023/05/18 09:22:04;;;;;;;6.88;5.40;;;;;;;-144.30;75.67;85440.16;5051054;28;20226;-50
2023/05/18 09:24:33;;;;;;;5.97;4.88;;;;;;;-144.30;77.20;85416.31;5051103;28;20763;-51
2023/05/18 09:27:00;;;;;;;5.43;4.50;;;;;;;-144.30;74.79;85400.41;5050784;28;20282;-52
2023/05/18 09:29:27;;;;;;;4.85;4.45;;;;;;;-144.30;75.67;85368.59;5050609;28;20220;-54
2023/05/18 09:31:54;;;;;;;8.13;4.80;;;;;;;-144.30;76.25;85376.56;5045914;28;20307;-53
2023/05/18 09:34:21;;;;;;;9.43;5.60;;;;;;;-144.30;76.12;85374.56;5046677;28;20342;-50
2023/05/18 09:36:49;;;;;;;6.15;4.40;;;;;;;-144.30;73.63;85356.69;5050746;28;20223;-50
2023/05/18 09:39:15;;;;;;;6.18;4.32;;;;;;;-144.30;72.93;85334.81;5050498;28;20426;-51
2023/05/18 09:41:44;;;;;;;8.07;4.20;;;;;;;-144.30;73.10;85376.56;5050412;28;20234;-50
2023/05/18 09:44:11;;;;;;;6.45;4.00;;;;;;;-144.30;70.57;85358.66;5050245;28;20300;-51
2023/05/18 09:46:39;;;;;;;4.35;3.33;;;;;;;-144.30;70.87;85368.59;5056482;28;20669;-51
2023/05/18 09:49:07;;;;;;;4.03;3.67;;;;;;;-144.30;70.60;85324.88;5042340;28;20228;-50
2023/05/18 09:51:38;;;;;;;10.63;4.13;;;;;;;-144.30;70.32;85301.00;5049964;28;20331;-51
2023/05/18 09:54:09;;;;;;;9.73;4.40;;;;;;;-144.30;71.72;85310.94;5050461;28;20264;-51
2023/05/18 09:56:37;;;;;;;7.45;3.78;;;;;;;-144.30;68.90;85291.06;5050469;28;20224;-51
2023/05/18 09:59:13;;;;;;;5.60;3.50;;;;;;;-144.30;69.07;85310.94;5050018;28;20243;-52
2023/05/18 10:01:55;;;;;;;3.95;3.63;;;;;;;-144.30;68.72;85237.41;5050350;28;20256;-51
2023/05/18 10:04:22;;;;;;;8.07;3.65;;;;;;;-144.30;68.47;85295.06;5050450;28;20216;-52
2023/05/18 10:06:51;;;;;;;3.85;3.50;;;;;;;-144.30;69.83;85291.06;5049758;28;20259;-53
2023/05/18 10:09:17;;;;;;;4.20;3.90;;;;;;;-144.30;70.21;85334.81;5049962;28;20312;-53
2023/05/18 10:11:44;;;;;;;6.32;3.55;;;;;;;-144.30;69.53;85273.19;5050192;28;20219;-54
2023/05/18 10:14:13;;;;;;;8.73;4.22;;;;;;;-144.30;68.68;85269.22;5050070;28;20310;-53
2023/05/18 10:16:41;;;;;;;7.53;3.60;;;;;;;-144.30;67.67;85243.38;5050003;28;20283;-52
2023/05/18 10:19:10;;;;;;;6.03;3.92;;;;;;;-144.30;67.88;85257.28;5051778;28;20200;-52
2023/05/18 10:21:38;;;;;;;4.55;3.00;;;;;;;-144.30;67.24;85265.22;5049079;28;20199;-53
2023/05/18 10:24:07;;;;;;;6.85;3.65;;;;;;;-144.30;67.31;85263.25;5048930;28;20193;-53
2023/05/18 10:26:39;;;;;;;3.67;3.42;;;;;;;-144.30;69.37;85229.44;5049033;28;20231;-53
2023/05/18 10:29:07;;;;;;;7.53;3.92;;;;;;;-144.30;68.65;85259.28;5047186;28;20287;-53
2023/05/18 10:31:37;;;;;;;5.65;5.00;;;;;;;-144.30;68.93;85257.28;5049048;28;20665;-54
2023/05/18 10:34:05;;;;;;;3.58;3.28;;;;;;;-144.30;68.47;85277.16;5046050;28;20251;-52
2023/05/18 10:36:34;;;;;;;5.00;3.00;;;;;;;-144.30;66.75;85295.06;5048315;28;20228;-52
2023/05/18 10:39:03;;;;;;;5.50;3.47;;;;;;;-144.30;66.66;85249.34;5046049;28;20240;-54
2023/05/18 10:41:32;;;;;;;5.60;3.22;;;;;;;-144.30;67.55;85259.28;5047791;28;20292;-54
2023/05/18 10:44:02;;;;;;;3.88;3.53;;;;;;;-144.30;66.85;85217.53;5047120;28;20468;-54
2023/05/18 10:46:30;;;;;;;5.07;3.58;;;;;;;-144.30;65.08;85193.66;5048267;28;20222;-54
2023/05/18 10:49:01;;;;;;;4.03;3.60;;;;;;;-144.30;64.26;85205.59;5047487;28;20197;-53
2023/05/18 10:51:30;;;;;;;10.38;4.35;;;;;;;-144.30;63.11;85181.75;5047391;28;20296;-55
2023/05/18 10:54:11;;;;;;;3.70;3.30;;;;;;;-144.30;61.57;85173.78;5047545;28;20742;-51
2023/05/18 10:56:38;;;;;;;8.13;3.42;;;;;;;-144.30;61.24;85215.53;5047192;28;20584;-52
2023/05/18 10:59:07;;;;;;;5.35;3.08;;;;;;;-144.30;59.93;85253.31;5046870;28;20231;-53
2023/05/18 11:01:34;;;;;;;3.78;2.80;;;;;;;-144.30;61.10;85203.59;5046880;28;20192;-54
2023/05/18 11:04:04;;;;;;;3.78;3.47;;;;;;;-144.30;62.26;85229.44;5046151;28;20192;-55